Time;durP1;ratioP1;P1;durP2;ratioP2;P2;SDS_P1;SDS_P2;PMS_P1;PMS_P2;Temp;Humidity;BMP_temperature;BMP_pressure;BME280_temperature;BME280_humidity;BME280_pressure;Samples;Min_cycle;Max_cycle;Signal;HPM_P1;HPM_P2
2023/04/18 00:00:56;;;;;;;13.18;8.68;;;;;;;6.90;100.00;103009.47;4999868;28;20440;-76
2023/04/18 00:03:23;;;;;;;13.60;9.73;;;;;;;6.85;100.00;103010.94;5003061;28;20048;-77
2023/04/18 00:05:51;;;;;;;11.80;8.98;;;;;;;6.79;100.00;103008.88;4974100;28;20444;-76
2023/04/18 00:08:18;;;;;;;11.10;8.45;;;;;;;6.78;100.00;103016.66;4976029;28;20049;-77
2023/04/18 00:10:46;;;;;;;10.27;8.25;;;;;;;6.73;100.00;103012.88;4959865;28;20053;-76
2023/04/18 00:13:17;;;;;;;11.30;8.32;;;;;;;6.70;100.00;103015.34;4989242;28;20058;-77
2023/04/18 00:15:45;;;;;;;16.13;7.80;;;;;;;6.69;100.00;103016.16;4978962;28;20125;-76
2023/04/18 00:18:16;;;;;;;9.93;8.20;;;;;;;6.68;100.00;103014.38;4987174;28;20057;-76
2023/04/18 00:20:45;;;;;;;12.15;8.02;;;;;;;6.66;100.00;103023.88;4986212;28;20041;-76
2023/04/18 00:23:13;;;;;;;9.20;8.05;;;;;;;6.62;100.00;103015.84;4971012;28;20057;-76
2023/04/18 00:25:41;;;;;;;11.60;8.88;;;;;;;6.60;100.00;103021.81;4969141;28;20038;-76
2023/04/18 00:28:08;;;;;;;10.50;8.32;;;;;;;6.60;100.00;103022.72;4967021;28;20062;-76
2023/04/18 00:30:35;;;;;;;12.07;8.20;;;;;;;6.58;100.00;103026.97;4984349;28;20037;-76
2023/04/18 00:33:04;;;;;;;10.80;7.68;;;;;;;6.58;100.00;103033.94;4983187;28;20042;-77
2023/04/18 00:35:31;;;;;;;10.23;8.23;;;;;;;6.56;100.00;103025.06;4986702;28;20069;-77
2023/04/18 00:37:58;;;;;;;13.15;7.60;;;;;;;6.53;100.00;103028.44;4974016;28;20540;-76
2023/04/18 00:40:25;;;;;;;9.88;7.32;;;;;;;6.50;100.00;103028.25;4986426;28;20049;-76
2023/04/18 00:42:53;;;;;;;9.45;7.45;;;;;;;6.50;100.00;103016.88;4939207;28;20050;-76
2023/04/18 00:45:20;;;;;;;8.43;7.50;;;;;;;6.47;100.00;103024.59;4980984;28;20066;-77
2023/04/18 00:47:47;;;;;;;12.20;8.25;;;;;;;6.43;100.00;103024.41;4951720;28;20062;-76
2023/04/18 00:50:15;;;;;;;10.55;7.65;;;;;;;6.42;100.00;103016.47;4997693;28;20061;-77
2023/04/18 00:52:43;;;;;;;10.90;8.00;;;;;;;6.40;100.00;103016.38;4969072;28;20053;-76
2023/04/18 00:55:11;;;;;;;11.48;8.50;;;;;;;6.40;100.00;103010.25;4988011;28;20046;-77
2023/04/18 00:57:39;;;;;;;8.32;7.18;;;;;;;6.36;100.00;103014.41;4959859;28;20042;-76
2023/04/18 01:00:08;;;;;;;11.73;8.05;;;;;;;6.31;100.00;103018.47;4964073;28;20038;-77
2023/04/18 01:02:36;;;;;;;8.82;7.18;;;;;;;6.29;100.00;103027.97;5004763;28;20497;-76
2023/04/18 01:05:05;;;;;;;12.73;7.50;;;;;;;6.29;100.00;103014.00;5003178;28;20483;-77
2023/04/18 01:07:36;;;;;;;9.88;7.70;;;;;;;6.27;100.00;103011.28;5004737;28;20049;-77
2023/04/18 01:10:04;;;;;;;10.23;8.48;;;;;;;6.27;100.00;103010.38;4981358;28;20050;-77
2023/04/18 01:12:31;;;;;;;12.02;7.78;;;;;;;6.24;100.00;103001.56;4940659;28;20054;-76
2023/04/18 01:14:59;;;;;;;10.13;7.38;;;;;;;6.24;100.00;103012.03;4938483;28;20546;-76
2023/04/18 01:17:28;;;;;;;9.05;7.47;;;;;;;6.23;100.00;103004.97;4989623;28;20050;-77
2023/04/18 01:19:55;;;;;;;9.18;7.78;;;;;;;6.23;100.00;103012.81;4983517;28;20674;-75
2023/04/18 01:22:23;;;;;;;8.63;7.38;;;;;;;6.23;100.00;103015.44;4994182;28;20394;-75
2023/04/18 01:24:50;;;;;;;8.50;7.18;;;;;;;6.23;100.00;103015.44;4989043;28;20053;-76
2023/04/18 01:27:17;;;;;;;10.25;6.65;;;;;;;6.22;100.00;103003.19;4976060;28;20053;-76
2023/04/18 01:29:45;;;;;;;9.23;7.22;;;;;;;6.21;100.00;103009.22;4933683;28;20037;-75
2023/04/18 01:32:12;;;;;;;8.07;6.85;;;;;;;6.21;100.00;103003.09;4982835;28;20046;-75
2023/04/18 01:34:40;;;;;;;11.05;6.85;;;;;;;6.21;100.00;103004.00;4986507;28;20428;-75
2023/04/18 01:37:07;;;;;;;9.82;5.82;;;;;;;6.21;100.00;103006.59;4991352;28;20045;-76
2023/04/18 01:39:34;;;;;;;9.68;6.13;;;;;;;6.21;100.00;103011.84;4996886;28;20046;-75
2023/04/18 01:42:01;;;;;;;7.65;6.00;;;;;;;6.20;100.00;103004.81;4979680;28;20903;-76
2023/04/18 01:44:29;;;;;;;8.25;6.55;;;;;;;6.21;100.00;103011.84;4942185;28;20500;-76
2023/04/18 01:46:56;;;;;;;7.07;6.25;;;;;;;6.21;100.00;103011.84;4984716;28;20057;-76
2023/04/18 01:49:24;;;;;;;6.63;5.60;;;;;;;6.20;100.00;103010.06;5001262;28;20057;-76
2023/04/18 01:51:51;;;;;;;7.53;5.72;;;;;;;6.20;100.00;103010.06;4967078;28;20061;-76
2023/04/18 01:54:20;;;;;;;6.93;5.93;;;;;;;6.21;100.00;103011.84;5002839;28;20085;-76
2023/04/18 01:56:47;;;;;;;8.52;5.40;;;;;;;6.23;100.00;103009.31;4964561;28;20060;-76
2023/04/18 01:59:15;;;;;;;8.52;5.57;;;;;;;6.27;100.00;103010.38;4952346;28;20061;-76
2023/04/18 02:01:43;;;;;;;7.80;6.30;;;;;;;6.29;100.00;103003.50;4925496;28;20049;-74
2023/04/18 02:04:11;;;;;;;7.28;6.00;;;;;;;6.32;100.00;103008.94;4987215;28;20054;-76
2023/04/18 02:06:38;;;;;;;7.15;5.78;;;;;;;6.35;100.00;103010.00;4985596;28;20050;-76
2023/04/18 02:09:06;;;;;;;10.05;5.80;;;;;;;6.38;100.00;103004.91;4962745;28;20677;-76
2023/04/18 02:11:33;;;;;;;9.60;5.72;;;;;;;6.39;100.00;103003.19;4996889;28;20064;-76
2023/04/18 02:14:02;;;;;;;6.28;5.68;;;;;;;6.39;100.00;103005.81;4966426;28;20046;-76
2023/04/18 02:16:29;;;;;;;7.82;5.55;;;;;;;6.39;100.00;103005.81;4963655;28;20041;-76
2023/04/18 02:18:56;;;;;;;6.45;5.85;;;;;;;6.40;100.00;103002.38;4948333;28;20049;-76
2023/04/18 02:21:24;;;;;;;6.95;5.78;;;;;;;6.40;100.00;103000.66;4986383;28;20413;-76
2023/04/18 02:23:51;;;;;;;8.52;5.68;;;;;;;6.41;100.00;103009.44;4979884;28;20046;-76
2023/04/18 02:26:21;;;;;;;7.53;6.18;;;;;;;6.41;100.00;103010.34;4953671;28;20056;-76
2023/04/18 02:28:49;;;;;;;8.82;5.85;;;;;;;6.43;100.00;103002.56;4992859;28;20050;-75
2023/04/18 02:31:16;;;;;;;9.75;6.03;;;;;;;6.44;100.00;103005.25;4957672;28;20061;-76
2023/04/18 02:33:46;;;;;;;8.48;6.22;;;;;;;6.45;100.00;103003.56;4974360;28;20050;-76
2023/04/18 02:36:13;;;;;;;7.13;5.72;;;;;;;6.47;100.00;103006.25;5002355;28;20073;-76
2023/04/18 02:38:41;;;;;;;7.00;5.80;;;;;;;6.46;100.00;103007.06;4971282;28;20046;-76
2023/04/18 02:41:13;;;;;;;6.38;5.53;;;;;;;6.44;100.00;103009.59;4989733;28;20058;-76
2023/04/18 02:43:41;;;;;;;9.57;5.60;;;;;;;6.44;100.00;103001.72;4967928;28;20053;-78
2023/04/18 02:46:08;;;;;;;7.28;5.80;;;;;;;6.44;100.00;103009.59;4987483;28;20045;-76
2023/04/18 02:48:35;;;;;;;7.38;5.47;;;;;;;6.44;100.00;103009.59;4933752;28;20058;-76
2023/04/18 02:51:05;;;;;;;7.68;6.88;;;;;;;6.43;100.00;103000.84;4977317;28;20058;-78
2023/04/18 02:53:35;;;;;;;6.43;5.75;;;;;;;6.44;100.00;103009.59;4987251;28;20068;-78
2023/04/18 02:56:02;;;;;;;8.10;5.63;;;;;;;6.44;100.00;103010.47;4965111;28;20057;-76
2023/04/18 02:58:49;;;;;;;6.10;5.30;;;;;;;6.43;100.00;103010.44;4984185;28;20054;-76
2023/04/18 03:01:55;;;;;;;6.38;5.75;;;;;;;6.42;100.00;103012.13;4948429;28;20051;-76
2023/04/18 03:04:23;;;;;;;6.38;5.32;;;;;;;6.44;100.00;103009.59;4885924;29;20052;-77
2023/04/18 03:06:59;;;;;;;7.13;5.82;;;;;;;6.44;100.00;103014.84;4943581;28;20050;-76
2023/04/18 03:09:30;;;;;;;;;;;;;;;6.44;100.00;103020.06;4988858;28;20060;-76
2023/04/18 03:12:03;;;;;;;8.77;5.72;;;;;;;6.44;100.00;103004.34;4968877;28;19925;-76
2023/04/18 03:14:31;;;;;;;12.93;5.32;;;;;;;6.44;100.00;103018.34;4977673;28;20053;-76
2023/04/18 03:16:59;;;;;;;6.97;5.65;;;;;;;6.44;100.00;103015.72;4988240;28;20498;-76
2023/04/18 03:19:32;;;;;;;6.82;5.72;;;;;;;6.47;100.00;103019.34;4945722;28;20060;-76
2023/04/18 03:22:05;;;;;;;7.18;6.00;;;;;;;6.43;100.00;103008.69;4975571;28;20061;-76
2023/04/18 03:24:35;;;;;;;9.90;5.32;;;;;;;6.45;100.00;103016.66;4968832;28;20142;-77
2023/04/18 03:27:05;;;;;;;6.15;5.43;;;;;;;6.47;100.00;103014.13;4970893;28;20090;-77
2023/04/18 03:29:33;;;;;;;6.13;5.50;;;;;;;6.47;100.00;103012.38;4968385;28;20041;-77
2023/04/18 03:32:00;;;;;;;8.02;5.82;;;;;;;6.48;100.00;103023.75;4968782;28;20050;-77
2023/04/18 03:34:28;;;;;;;9.27;5.70;;;;;;;6.48;100.00;103016.78;4940421;28;20093;-77
2023/04/18 03:36:56;;;;;;;7.85;5.68;;;;;;;6.49;100.00;103021.22;4982481;28;20046;-77
2023/04/18 03:39:24;;;;;;;10.20;6.60;;;;;;;6.50;100.00;103016.88;4988242;28;20057;-77
2023/04/18 03:41:53;;;;;;;7.97;5.93;;;;;;;6.52;100.00;103016.16;4959415;28;20046;-76
2023/04/18 03:44:20;;;;;;;7.22;6.47;;;;;;;6.51;100.00;103019.59;4985248;28;20065;-77
2023/04/18 03:46:47;;;;;;;10.43;6.43;;;;;;;6.52;100.00;103034.50;4988000;28;20540;-77
2023/04/18 03:49:15;;;;;;;7.40;6.03;;;;;;;6.53;100.00;103024.91;4931023;28;20515;-77
2023/04/18 03:51:46;;;;;;;7.45;6.60;;;;;;;6.52;100.00;103029.28;4986279;28;20509;-77
2023/04/18 03:54:15;;;;;;;9.68;6.30;;;;;;;6.53;100.00;103030.16;4985197;28;20049;-77
2023/04/18 03:56:43;;;;;;;7.03;6.30;;;;;;;6.53;100.00;103025.81;5004103;28;20130;-76
2023/04/18 03:59:12;;;;;;;7.78;6.95;;;;;;;6.52;100.00;103039.75;4989105;28;20112;-76
2023/04/18 04:01:42;;;;;;;14.80;6.80;;;;;;;6.53;100.00;103041.53;4930834;28;20049;-77
2023/04/18 04:04:12;;;;;;;7.57;6.13;;;;;;;6.53;100.00;103038.91;4970160;28;20049;-76
2023/04/18 04:06:40;;;;;;;9.63;6.75;;;;;;;6.53;100.00;103040.63;4953793;28;20054;-77
2023/04/18 04:09:08;;;;;;;10.27;6.88;;;;;;;6.53;100.00;103033.66;5000870;28;20073;-76
2023/04/18 04:11:35;;;;;;;8.63;6.68;;;;;;;6.52;100.00;103036.19;4980385;28;20050;-77
2023/04/18 04:14:05;;;;;;;8.52;6.72;;;;;;;6.51;100.00;103037.94;4939607;28;20162;-77
2023/04/18 04:16:38;;;;;;;11.60;7.45;;;;;;;6.52;100.00;103045.00;4972000;28;20057;-77
2023/04/18 04:19:06;;;;;;;9.45;6.65;;;;;;;6.52;100.00;103042.38;4980598;28;20532;-76
2023/04/18 04:21:40;;;;;;;7.72;6.70;;;;;;;6.52;100.00;103045.00;4967783;28;20175;-76
2023/04/18 04:24:12;;;;;;;;;;;;;;;6.52;100.00;103039.75;4971701;28;20058;-77
2023/04/18 04:26:45;;;;;;;9.57;6.90;;;;;;;6.52;100.00;103045.00;4979693;28;20385;-76
2023/04/18 04:29:16;;;;;;;9.02;7.43;;;;;;;6.50;100.00;103046.59;4958802;28;20307;-77
2023/04/18 04:31:45;;;;;;;9.73;7.60;;;;;;;6.51;100.00;103042.28;4970996;28;20527;-76
2023/04/18 04:34:17;;;;;;;11.73;7.63;;;;;;;6.51;100.00;103047.50;4978561;28;20054;-76
2023/04/18 04:36:45;;;;;;;10.05;7.97;;;;;;;6.51;100.00;103045.78;4925393;28;20077;-77
2023/04/18 04:39:19;;;;;;;7.80;6.95;;;;;;;6.49;100.00;103047.44;4950422;28;20050;-77
2023/04/18 04:42:18;;;;;;;11.27;7.22;;;;;;;6.50;100.00;103043.06;4964539;28;20061;-76
2023/04/18 04:44:55;;;;;;;7.95;7.15;;;;;;;6.49;100.00;103055.28;4966866;28;20057;-76
2023/04/18 04:47:25;;;;;;;9.32;7.20;;;;;;;6.50;100.00;103050.94;4932584;28;20409;-76
2023/04/18 04:49:53;;;;;;;14.73;7.72;;;;;;;6.49;100.00;103050.03;4980783;28;20532;-76
2023/04/18 04:52:20;;;;;;;11.27;8.07;;;;;;;6.51;100.00;103053.66;4934383;28;20405;-76
2023/04/18 04:54:50;;;;;;;9.52;7.00;;;;;;;6.52;100.00;103049.31;4949506;28;20050;-76
2023/04/18 04:57:19;;;;;;;11.27;7.95;;;;;;;6.55;100.00;103053.00;4971341;28;20057;-76
2023/04/18 04:59:46;;;;;;;9.32;7.97;;;;;;;6.57;100.00;103053.97;4970699;28;20061;-76
2023/04/18 05:02:14;;;;;;;12.68;8.02;;;;;;;6.61;100.00;103052.44;4981628;28;20053;-76
2023/04/18 05:04:41;;;;;;;10.70;7.50;;;;;;;6.63;100.00;103059.56;4953681;28;20061;-76
2023/04/18 05:07:09;;;;;;;8.85;7.95;;;;;;;6.67;100.00;103057.09;4952247;28;20061;-77
2023/04/18 05:09:36;;;;;;;9.95;7.53;;;;;;;6.71;100.00;103056.44;4967482;28;20398;-76
2023/04/18 05:12:04;;;;;;;9.27;7.25;;;;;;;6.75;100.00;103055.81;4980045;28;20276;-76
2023/04/18 05:14:31;;;;;;;9.00;7.18;;;;;;;6.76;100.00;103060.22;4984360;28;20038;-76
2023/04/18 05:16:58;;;;;;;10.70;7.65;;;;;;;6.75;100.00;103059.34;4980930;28;20244;-76
2023/04/18 05:19:26;;;;;;;9.55;7.63;;;;;;;6.77;100.00;103067.28;4965743;28;20049;-76
2023/04/18 05:21:53;;;;;;;11.90;8.07;;;;;;;6.74;100.00;103057.50;4962507;28;20076;-75
2023/04/18 05:24:20;;;;;;;11.38;7.88;;;;;;;6.74;100.00;103074.97;4953215;28;20072;-76
2023/04/18 05:26:48;;;;;;;9.63;7.40;;;;;;;6.72;100.00;103071.38;4980118;28;20178;-77
2023/04/18 05:29:16;;;;;;;9.63;7.93;;;;;;;6.72;100.00;103066.13;4992157;28;20049;-77
2023/04/18 05:31:43;;;;;;;9.35;7.45;;;;;;;6.72;100.00;103058.25;4988453;28;20069;-77
2023/04/18 05:34:10;;;;;;;10.25;7.13;;;;;;;6.72;100.00;103064.41;4984014;28;21637;-78
2023/04/18 05:36:42;;;;;;;9.30;7.95;;;;;;;6.72;100.00;103072.25;4968674;28;20045;-77
2023/04/18 05:39:10;;;;;;;10.10;7.13;;;;;;;6.74;100.00;103069.72;4943716;28;20046;-77
2023/04/18 05:41:37;;;;;;;13.13;8.40;;;;;;;6.75;100.00;103075.06;4986951;28;20134;-76
2023/04/18 05:44:05;;;;;;;15.82;7.32;;;;;;;6.73;100.00;103083.63;4985865;28;20485;-76
2023/04/18 05:46:34;;;;;;;12.10;7.43;;;;;;;6.71;100.00;103082.66;4986705;28;20518;-76
2023/04/18 05:49:02;;;;;;;10.90;7.90;;;;;;;6.70;100.00;103076.50;4980654;28;20090;-82
2023/04/18 05:51:30;;;;;;;12.30;8.30;;;;;;;6.72;100.00;103084.47;4970799;28;20050;-77
2023/04/18 05:53:58;;;;;;;9.85;7.38;;;;;;;6.72;100.00;103081.84;4951962;28;20030;-76
2023/04/18 05:56:25;;;;;;;8.40;7.00;;;;;;;6.74;100.00;103082.81;4974892;28;20072;-76
2023/04/18 05:58:53;;;;;;;10.70;7.30;;;;;;;6.75;100.00;103092.50;5005533;28;20056;-77
2023/04/18 06:01:20;;;;;;;11.23;7.50;;;;;;;6.80;100.00;103081.41;4988864;28;20046;-77
2023/04/18 06:03:47;;;;;;;10.85;7.68;;;;;;;7.02;100.00;103091.34;4975485;28;20046;-77
2023/04/18 06:06:15;;;;;;;11.63;6.97;;;;;;;7.15;100.00;103092.03;4990083;28;20045;-77
2023/04/18 06:08:42;;;;;;;9.50;6.90;;;;;;;7.25;100.00;103089.06;5004969;28;20527;-76
2023/04/18 06:11:09;;;;;;;9.90;7.10;;;;;;;7.27;100.00;103097.91;4933660;28;20054;-77
2023/04/18 06:13:37;;;;;;;11.38;7.43;;;;;;;7.29;100.00;103096.25;4987649;28;20049;-77
2023/04/18 06:16:05;;;;;;;8.88;7.20;;;;;;;7.33;100.00;103097.31;4990280;28;20050;-76
2023/04/18 06:18:32;;;;;;;9.63;7.00;;;;;;;7.33;100.00;103092.09;4992237;28;20045;-77
2023/04/18 06:20:59;;;;;;;10.00;7.40;;;;;;;7.34;100.00;103102.66;4981542;28;20042;-77
2023/04/18 06:23:27;;;;;;;12.52;6.93;;;;;;;7.47;100.00;103100.69;4982217;28;20046;-77
2023/04/18 06:25:55;;;;;;;11.00;7.32;;;;;;;7.60;100.00;103092.63;4937916;28;20045;-79
2023/04/18 06:28:22;;;;;;;10.75;8.32;;;;;;;7.86;100.00;103091.31;4978423;28;20046;-77
2023/04/18 06:30:49;;;;;;;12.32;7.10;;;;;;;8.13;100.00;103091.78;4998600;28;20050;-77
2023/04/18 06:33:16;;;;;;;11.15;7.32;;;;;;;8.18;100.00;103100.81;4965698;28;20046;-77
2023/04/18 06:35:44;;;;;;;12.48;7.43;;;;;;;8.11;100.00;103100.41;5004157;28;20417;-77
2023/04/18 06:38:11;;;;;;;11.65;8.88;;;;;;;8.04;100.00;103096.59;4974604;28;20052;-77
2023/04/18 06:40:38;;;;;;;11.18;7.43;;;;;;;8.04;100.00;103106.19;4933635;28;20046;-77
2023/04/18 06:43:06;;;;;;;11.73;7.43;;;;;;;8.02;100.00;103102.59;4962366;28;20048;-77
2023/04/18 06:45:34;;;;;;;9.43;7.57;;;;;;;8.00;100.00;103106.03;4977043;28;20412;-79
2023/04/18 06:48:02;;;;;;;13.50;7.78;;;;;;;8.04;100.00;103100.94;4998914;28;20153;-78
2023/04/18 06:50:30;;;;;;;11.52;7.78;;;;;;;8.13;100.00;103106.66;4998032;28;20046;-78
2023/04/18 06:52:58;;;;;;;10.25;7.35;;;;;;;8.25;100.00;103115.13;4998960;28;20417;-78
2023/04/18 06:55:25;;;;;;;9.60;7.35;;;;;;;8.52;100.00;103102.44;5003582;28;20050;-79
2023/04/18 06:57:53;;;;;;;10.55;7.10;;;;;;;8.79;100.00;103099.34;4950750;28;20057;-77
2023/04/18 07:00:20;;;;;;;9.88;6.78;;;;;;;8.97;100.00;103087.00;4992956;28;20042;-79
2023/04/18 07:02:47;;;;;;;11.07;7.70;;;;;;;9.07;100.00;103105.84;4969990;28;20413;-77
2023/04/18 07:05:18;;;;;;;10.90;7.40;;;;;;;9.09;100.00;103105.09;4992568;28;20064;-77
2023/04/18 07:07:45;;;;;;;9.30;7.38;;;;;;;9.07;100.00;103096.22;4956174;28;20056;-79
2023/04/18 07:10:12;;;;;;;9.55;7.55;;;;;;;9.17;100.00;103106.34;4964661;28;20054;-80
2023/04/18 07:12:39;;;;;;;13.07;7.43;;;;;;;9.17;100.00;103097.56;4951856;28;20050;-78
2023/04/18 07:15:08;;;;;;;11.00;6.75;;;;;;;9.11;100.00;103099.88;4985052;28;20046;-79
2023/04/18 07:17:35;;;;;;;8.65;7.28;;;;;;;9.11;100.00;103102.53;4985795;28;20055;-78
2023/04/18 07:20:03;;;;;;;12.73;6.63;;;;;;;9.10;100.00;103108.63;4962752;28;20058;-78
2023/04/18 07:22:30;;;;;;;7.97;6.60;;;;;;;9.10;100.00;103106.00;4942535;28;20049;-77
2023/04/18 07:24:58;;;;;;;9.93;6.68;;;;;;;9.01;100.00;103105.56;4991267;28;20373;-78
2023/04/18 07:27:25;;;;;;;10.18;6.40;;;;;;;8.97;100.00;103105.41;4968749;28;20536;-77
2023/04/18 07:29:53;;;;;;;8.30;6.60;;;;;;;9.03;100.00;103101.28;4936887;28;20133;-77
2023/04/18 07:32:20;;;;;;;10.98;6.75;;;;;;;9.07;100.00;103100.59;4983788;28;20069;-78
2023/04/18 07:34:51;;;;;;;8.57;6.45;;;;;;;9.14;100.00;103095.66;4977075;28;20072;-79
2023/04/18 07:37:20;;;;;;;11.02;6.70;;;;;;;9.20;100.00;103109.94;4974943;28;20049;-80
2023/04/18 07:39:47;;;;;;;9.65;6.60;;;;;;;9.25;100.00;103113.69;4970980;28;20046;-79
2023/04/18 07:42:14;;;;;;;11.63;7.13;;;;;;;9.25;100.00;103104.06;4994770;28;20053;-79
2023/04/18 07:44:42;;;;;;;14.02;7.60;;;;;;;9.28;100.00;103098.00;4949606;28;20050;-79
2023/04/18 07:47:10;;;;;;;12.73;6.97;;;;;;;9.31;100.00;103100.78;4959800;28;20054;-79
2023/04/18 07:49:37;;;;;;;7.05;6.13;;;;;;;9.37;100.00;103103.69;5011255;28;20046;-79
2023/04/18 07:52:04;;;;;;;8.45;6.63;;;;;;;9.41;100.00;103115.25;4970408;28;20072;-78
2023/04/18 07:54:32;;;;;;;10.02;6.95;;;;;;;9.42;100.00;103090.75;4983268;28;20497;-78
2023/04/18 07:56:59;;;;;;;11.90;6.97;;;;;;;9.49;100.00;103098.06;5000912;28;20593;-78
2023/04/18 07:59:27;;;;;;;10.02;6.53;;;;;;;9.57;100.00;103101.94;4921745;28;20050;-78
2023/04/18 08:01:55;;;;;;;9.88;6.45;;;;;;;9.66;100.00;103097.09;4968239;28;20057;-78
2023/04/18 08:04:22;;;;;;;12.07;6.38;;;;;;;9.71;100.00;103095.53;4975828;28;20386;-79
2023/04/18 08:06:50;;;;;;;10.13;7.03;;;;;;;9.75;100.00;103101.81;4977492;28;20090;-78
2023/04/18 08:09:20;;;;;;;10.10;6.40;;;;;;;9.79;100.00;103103.75;4979161;28;20057;-79
2023/04/18 08:11:47;;;;;;;11.35;6.25;;;;;;;9.82;100.00;103090.72;4985167;28;20069;-78
2023/04/18 08:14:15;;;;;;;9.18;6.18;;;;;;;9.79;100.00;103094.94;4951313;28;20930;-79
2023/04/18 08:16:42;;;;;;;7.72;6.00;;;;;;;9.87;100.00;103131.31;5004556;28;20524;-78
2023/04/18 08:19:09;;;;;;;10.48;5.28;;;;;;;9.91;100.00;103099.00;4980000;28;20072;-79
2023/04/18 08:21:38;;;;;;;10.90;6.07;;;;;;;10.00;98.29;103113.38;4984769;28;20076;-78
2023/04/18 08:24:05;;;;;;;9.20;5.22;;;;;;;9.96;98.78;103096.56;4949491;28;20057;-78
2023/04/18 08:26:33;;;;;;;8.55;5.78;;;;;;;10.09;98.75;103096.25;4956591;28;20049;-78
2023/04/18 08:29:01;;;;;;;11.73;5.80;;;;;;;10.28;99.02;103110.16;4946713;28;20073;-79
2023/04/18 08:31:30;;;;;;;11.73;5.35;;;;;;;10.42;97.80;103098.47;4965830;28;20061;-79
2023/04/18 08:33:57;;;;;;;6.95;5.40;;;;;;;10.38;94.77;103104.47;4980401;28;20891;-80
2023/04/18 08:36:25;;;;;;;9.52;5.57;;;;;;;10.40;95.26;103104.53;4981239;28;20053;-80
2023/04/18 08:38:53;;;;;;;7.20;5.50;;;;;;;10.48;95.62;103106.63;4975684;28;20064;-78
2023/04/18 08:41:24;;;;;;;10.65;5.50;;;;;;;10.56;95.54;103109.56;4978408;28;20065;-78
2023/04/18 08:43:51;;;;;;;7.32;5.65;;;;;;;10.60;93.97;103100.91;5010988;28;20050;-78
2023/04/18 08:46:21;;;;;;;7.53;5.13;;;;;;;10.70;94.17;103105.72;4976484;28;20053;-78
2023/04/18 08:48:50;;;;;;;7.18;5.55;;;;;;;10.84;93.24;103106.25;4986455;28;20094;-77
2023/04/18 08:51:17;;;;;;;6.72;5.60;;;;;;;10.91;92.80;103100.38;4961465;28;20054;-78
2023/04/18 08:53:44;;;;;;;8.40;5.25;;;;;;;10.87;90.77;103095.84;4981545;28;20042;-78
2023/04/18 08:56:15;;;;;;;7.65;5.78;;;;;;;10.84;91.76;103100.09;4969012;28;20140;-79
2023/04/18 08:58:43;;;;;;;9.98;5.68;;;;;;;10.94;93.21;103107.50;4976577;28;20105;-77
2023/04/18 09:01:12;;;;;;;7.28;4.95;;;;;;;10.92;89.29;103112.72;4938619;28;20041;-78
2023/04/18 09:03:41;;;;;;;11.35;5.13;;;;;;;10.89;91.22;103103.81;4983871;28;20056;-80
2023/04/18 09:06:17;;;;;;;8.30;5.63;;;;;;;10.88;91.80;103102.88;4987047;28;20042;-79
2023/04/18 09:08:57;;;;;;;5.30;4.82;;;;;;;10.96;91.43;103099.66;4966004;28;20060;-78
2023/04/18 09:11:37;;;;;;;7.75;5.60;;;;;;;11.01;93.65;103106.00;5015120;28;20049;-79
2023/04/18 09:14:05;;;;;;;7.18;4.90;;;;;;;11.06;93.76;103094.78;5000680;28;20057;-79
2023/04/18 09:16:49;;;;;;;6.20;4.28;;;;;;;11.16;93.93;103103.94;4937142;28;20500;-78
2023/04/18 09:19:16;;;;;;;8.63;4.63;;;;;;;11.25;93.95;103112.19;4993555;28;20061;-79
2023/04/18 09:21:49;;;;;;;9.90;5.07;;;;;;;11.28;93.12;103106.09;4989090;28;20523;-79
2023/04/18 09:24:25;;;;;;;6.72;5.13;;;;;;;11.24;91.87;103102.47;4972512;28;20053;-78
2023/04/18 09:26:54;;;;;;;7.22;4.80;;;;;;;11.20;92.35;103097.91;5004327;28;20050;-78
2023/04/18 09:29:42;;;;;;;5.32;4.63;;;;;;;11.28;95.08;103095.56;5000366;28;20058;-78
2023/04/18 09:32:09;;;;;;;7.00;4.95;;;;;;;11.32;93.33;103103.66;4945574;28;20142;-78
2023/04/18 09:34:41;;;;;;;5.10;4.32;;;;;;;11.39;92.83;103111.78;4998335;28;20057;-78
2023/04/18 09:37:12;;;;;;;6.25;4.32;;;;;;;11.39;93.01;103120.59;4996560;28;20054;-78
2023/04/18 09:39:42;;;;;;;5.60;4.18;;;;;;;11.41;92.91;103100.44;4984186;28;20057;-79
2023/04/18 09:42:10;;;;;;;5.53;4.00;;;;;;;11.49;94.74;103104.25;5016614;28;20073;-79
2023/04/18 09:44:56;;;;;;;6.10;3.78;;;;;;;11.57;93.76;103104.53;5000240;28;20049;-79
2023/04/18 09:47:23;;;;;;;4.72;3.65;;;;;;;11.52;93.51;103092.91;5010385;28;20126;-79
2023/04/18 09:49:52;;;;;;;6.93;4.85;;;;;;;11.62;94.51;103091.47;4956862;28;20058;-79
2023/04/18 09:52:21;;;;;;;5.55;4.40;;;;;;;11.79;95.26;103087.66;4953922;28;20076;-79
2023/04/18 09:54:54;;;;;;;7.55;4.55;;;;;;;11.91;93.34;103084.59;4965330;28;20054;-78
2023/04/18 09:57:25;;;;;;;5.57;4.32;;;;;;;11.97;93.73;103087.44;5012808;28;20056;-78
2023/04/18 10:00:00;;;;;;;6.65;4.72;;;;;;;11.96;93.66;103088.25;4970219;28;20057;-79
2023/04/18 10:02:38;;;;;;;5.40;4.60;;;;;;;11.82;93.38;103090.41;5009831;28;20065;-79
2023/04/18 10:05:07;;;;;;;5.35;4.57;;;;;;;11.82;95.94;103089.53;4930330;28;20033;-77
2023/04/18 10:07:35;;;;;;;9.90;4.95;;;;;;;11.91;95.13;103092.50;4979289;28;20504;-78
2023/04/18 10:10:03;;;;;;;7.88;3.90;;;;;;;11.92;95.33;103083.72;4994180;28;20056;-78
2023/04/18 10:12:31;;;;;;;10.30;4.90;;;;;;;12.05;95.34;103093.84;4989401;28;20048;-77
2023/04/18 10:14:59;;;;;;;4.95;4.43;;;;;;;12.01;93.31;103084.03;5003727;28;20058;-78
2023/04/18 10:17:27;;;;;;;4.47;3.92;;;;;;;12.01;94.03;103088.44;4997540;28;20149;-79
2023/04/18 10:20:15;;;;;;;5.80;3.95;;;;;;;12.02;89.87;103084.91;4949246;28;20046;-78
2023/04/18 10:22:43;;;;;;;5.22;3.70;;;;;;;12.02;91.97;103082.28;5004317;28;20520;-78
2023/04/18 10:25:10;;;;;;;5.13;3.70;;;;;;;12.07;93.00;103084.22;4970492;28;20081;-77
2023/04/18 10:27:46;;;;;;;4.20;3.80;;;;;;;12.13;92.89;103080.00;4989155;28;20081;-78
2023/04/18 10:30:17;;;;;;;4.05;3.65;;;;;;;12.18;94.33;103081.94;4999345;28;20054;-77
2023/04/18 10:32:45;;;;;;;;;;;;;;;12.24;89.21;103079.47;4974859;28;20508;-77
2023/04/18 10:35:12;;;;;;;4.53;3.88;;;;;;;12.33;92.58;103075.34;4967524;28;19940;-79
2023/04/18 10:37:58;;;;;;;5.50;4.30;;;;;;;12.40;91.39;103075.59;4977895;28;20052;-76
2023/04/18 10:40:33;;;;;;;5.25;3.55;;;;;;;12.31;87.01;103079.72;4979943;28;20053;-78
2023/04/18 10:43:00;;;;;;;5.20;3.97;;;;;;;12.14;92.46;103087.97;4978157;28;20046;-76
2023/04/18 10:45:35;;;;;;;5.28;4.10;;;;;;;12.08;93.60;103078.09;5007745;28;20053;-78
2023/04/18 10:48:28;;;;;;;5.10;3.45;;;;;;;12.26;95.90;103074.25;4977086;28;20057;-78
2023/04/18 10:51:18;;;;;;;3.85;3.30;;;;;;;12.40;90.75;103061.47;4955724;28;20085;-78
2023/04/18 10:53:56;;;;;;;4.65;3.85;;;;;;;12.49;90.08;103067.03;4987802;28;20370;-78
2023/04/18 10:56:25;;;;;;;5.75;3.28;;;;;;;12.56;93.67;103062.84;4989507;28;20416;-79
2023/04/18 10:58:52;;;;;;;3.92;3.58;;;;;;;12.61;92.60;103070.06;4989589;28;20415;-78
2023/04/18 11:01:28;;;;;;;4.78;3.08;;;;;;;12.63;91.33;103062.19;4986801;28;20046;-77
2023/04/18 11:03:59;;;;;;;3.83;3.03;;;;;;;12.70;90.44;103058.84;4975401;28;20057;-77
2023/04/18 11:06:29;;;;;;;3.53;2.70;;;;;;;12.84;92.57;103057.50;4948447;28;20054;-77
2023/04/18 11:09:12;;;;;;;4.05;2.85;;;;;;;12.95;88.23;103070.16;5003308;28;20058;-75
2023/04/18 11:11:42;;;;;;;3.53;2.80;;;;;;;12.88;91.50;103061.16;4976462;28;20073;-77
2023/04/18 11:14:10;;;;;;;5.70;3.20;;;;;;;13.00;93.50;103056.19;5006728;28;20049;-77
2023/04/18 11:16:39;;;;;;;3.88;2.90;;;;;;;13.05;90.29;103054.56;4990971;28;20612;-77
2023/04/18 11:19:20;;;;;;;3.30;2.70;;;;;;;13.06;84.85;103047.53;4994362;28;20413;-78
2023/04/18 11:21:48;;;;;;;3.08;2.78;;;;;;;13.01;90.20;103050.06;4956305;28;20053;-78
2023/04/18 11:24:22;;;;;;;2.92;2.40;;;;;;;12.95;90.55;103023.44;5007507;28;20038;-77
2023/04/18 11:26:54;;;;;;;3.00;2.70;;;;;;;12.93;90.22;103035.72;4987547;28;20045;-77
2023/04/18 11:29:22;;;;;;;2.38;2.05;;;;;;;13.04;92.26;103039.56;5008157;28;20057;-77
2023/04/18 11:31:52;;;;;;;3.38;2.75;;;;;;;13.23;91.54;103027.72;4968557;28;20072;-77
2023/04/18 11:34:29;;;;;;;2.60;2.38;;;;;;;13.41;89.14;103027.34;4995354;28;20049;-78